createdAt,value
2022-12-26T00:00:40.685Z,92.11
2022-12-26T00:01:40.585Z,91.91
2022-12-26T00:02:40.755Z,91.80
2022-12-26T00:03:40.748Z,92.32
2022-12-26T00:04:51.514Z,92.32
2022-12-26T00:05:40.556Z,91.91
2022-12-26T00:06:40.550Z,91.39
2022-12-26T00:07:40.511Z,91.60
2022-12-26T00:08:40.582Z,92.11
2022-12-26T00:09:40.475Z,92.11
2022-12-26T00:10:40.478Z,91.91
2022-12-26T00:11:40.476Z,91.80
2022-12-26T00:12:40.450Z,92.05
2022-12-26T00:13:41.673Z,92.57
2022-12-26T00:14:40.424Z,92.78
2022-12-26T00:15:40.397Z,93.08
2022-12-26T00:16:40.466Z,93.08
2022-12-26T00:17:40.390Z,92.78
2022-12-26T00:18:40.386Z,92.57
2022-12-26T00:19:40.364Z,92.16
2022-12-26T00:20:40.388Z,91.95
2022-12-26T00:21:40.329Z,91.64
2022-12-26T00:22:40.307Z,91.95
2022-12-26T00:23:40.281Z,92.16
2022-12-26T00:24:40.321Z,92.26
2022-12-26T00:25:40.257Z,91.95
2022-12-26T00:26:40.262Z,91.74
2022-12-26T00:27:40.272Z,91.64
2022-12-26T00:28:40.253Z,91.74
2022-12-26T00:29:40.271Z,92.68
2022-12-26T00:30:40.241Z,92.57
2022-12-26T00:31:40.214Z,92.30
2022-12-26T00:32:40.179Z,92.61
2022-12-26T00:33:40.162Z,92.72
2022-12-26T00:34:40.151Z,92.30
2022-12-26T00:35:40.155Z,91.99
2022-12-26T00:36:40.134Z,92.41
2022-12-26T00:37:40.101Z,92.20
2022-12-26T00:38:40.100Z,92.20
2022-12-26T00:39:40.086Z,91.68
2022-12-26T00:40:40.126Z,91.37
2022-12-26T00:41:40.087Z,92.51
2022-12-26T00:42:40.044Z,92.61
2022-12-26T00:43:40.035Z,92.41
2022-12-26T00:44:40.038Z,92.41
2022-12-26T00:45:39.991Z,93.38
2022-12-26T00:46:40.165Z,93.38
2022-12-26T00:47:39.967Z,93.28
2022-12-26T00:48:39.979Z,93.18
2022-12-26T00:50:15.049Z,93.07
2022-12-26T00:50:39.950Z,92.86
2022-12-26T00:51:39.953Z,92.76
2022-12-26T00:52:39.950Z,92.66
2022-12-26T00:53:39.904Z,92.86
2022-12-26T00:54:39.908Z,93.18
2022-12-26T00:55:39.874Z,92.97
2022-12-26T00:56:39.902Z,92.97
2022-12-26T00:57:39.848Z,92.80
2022-12-26T00:58:39.861Z,93.12
2022-12-26T00:59:39.835Z,93.63
2022-12-26T01:00:39.904Z,94.36
2022-12-26T01:01:40.027Z,94.46
2022-12-26T01:02:40.171Z,94.57
2022-12-26T01:03:39.763Z,94.67
2022-12-26T01:04:39.766Z,94.98
2022-12-26T01:05:39.764Z,95.09
2022-12-26T01:06:39.748Z,95.09
2022-12-26T01:08:19.626Z,94.78
2022-12-26T01:08:39.748Z,94.36
2022-12-26T01:09:39.721Z,94.26
2022-12-26T01:10:39.699Z,94.46
2022-12-26T01:11:39.657Z,94.46
2022-12-26T01:12:39.680Z,94.88
2022-12-26T01:13:39.653Z,94.78
2022-12-26T01:14:39.631Z,94.36
2022-12-26T01:15:39.634Z,93.95
2022-12-26T01:16:39.658Z,93.84
2022-12-26T01:17:39.577Z,94.46
2022-12-26T01:18:39.563Z,94.88
2022-12-26T01:19:39.557Z,95.09
2022-12-26T01:20:39.560Z,95.19
2022-12-26T01:21:39.530Z,94.67
2022-12-26T01:22:39.525Z,94.51
2022-12-26T01:23:39.531Z,94.15
2022-12-26T01:24:39.503Z,94.09
2022-12-26T01:26:19.308Z,94.09
2022-12-26T01:26:39.506Z,93.99
2022-12-26T01:27:39.471Z,94.09
2022-12-26T01:28:39.464Z,94.09
2022-12-26T01:29:39.415Z,93.88
2022-12-26T01:30:39.418Z,93.68
2022-12-26T01:31:39.503Z,93.47
2022-12-26T01:32:39.389Z,93.57
2022-12-26T01:33:39.387Z,93.88
2022-12-26T01:34:39.368Z,93.99
2022-12-26T01:35:39.345Z,94.20
2022-12-26T01:36:39.357Z,94.20
2022-12-26T01:37:39.313Z,94.51
2022-12-26T01:38:39.323Z,95.13
2022-12-26T01:39:39.324Z,94.82
2022-12-26T01:40:39.281Z,94.82
2022-12-26T01:41:39.257Z,94.61
2022-12-26T01:42:39.294Z,94.40
2022-12-26T01:43:39.274Z,94.30
2022-12-26T01:44:39.228Z,94.09
2022-12-26T01:45:39.296Z,94.30
2022-12-26T01:46:39.218Z,94.20
2022-12-26T01:47:39.177Z,94.09
2022-12-26T01:48:39.189Z,94.30
2022-12-26T01:49:39.187Z,94.30
2022-12-26T01:50:39.174Z,93.99
2022-12-26T01:51:39.139Z,93.57
2022-12-26T01:52:39.121Z,93.37
2022-12-26T01:53:39.140Z,93.82
2022-12-26T01:54:42.687Z,94.34
2022-12-26T01:55:39.073Z,94.45
2022-12-26T01:56:39.115Z,94.86
2022-12-26T01:57:39.048Z,94.76
2022-12-26T01:58:39.083Z,94.96
2022-12-26T01:59:39.055Z,95.59
2022-12-26T02:04:17.317Z,94.76
2022-12-26T02:05:18.276Z,94.55
2022-12-26T02:06:18.260Z,94.45
2022-12-26T02:07:18.270Z,94.24
2022-12-26T02:08:18.222Z,94.03
2022-12-26T02:09:18.246Z,94.13
2022-12-26T02:10:18.204Z,94.03
2022-12-26T02:11:18.183Z,93.93
2022-12-26T02:12:34.205Z,93.82
2022-12-26T02:13:18.159Z,93.93
2022-12-26T02:14:18.178Z,94.13
2022-12-26T02:15:18.153Z,94.03
2022-12-26T02:16:18.227Z,94.28
2022-12-26T02:17:18.102Z,94.03
2022-12-26T02:18:18.124Z,94.18
2022-12-26T02:19:18.084Z,94.80
2022-12-26T02:20:18.077Z,95.32
2022-12-26T02:21:18.073Z,95.21
2022-12-26T02:22:18.086Z,94.90
2022-12-26T02:23:18.031Z,94.80
2022-12-26T02:24:18.049Z,94.90
2022-12-26T02:25:18.016Z,94.80
2022-12-26T02:26:18.028Z,94.80
2022-12-26T02:27:17.997Z,94.80
2022-12-26T02:28:18.000Z,95.21
2022-12-26T02:29:17.955Z,95.42
2022-12-26T02:30:17.982Z,95.21
2022-12-26T02:31:18.107Z,94.90
2022-12-26T02:32:17.932Z,94.70
2022-12-26T02:33:17.900Z,94.49
2022-12-26T02:34:17.931Z,94.49
2022-12-26T02:35:17.906Z,93.97
2022-12-26T02:36:17.888Z,93.55
2022-12-26T02:37:17.865Z,93.14
2022-12-26T02:38:17.835Z,93.03
2022-12-26T02:39:44.650Z,92.93
2022-12-26T02:40:17.870Z,93.14
2022-12-26T02:41:17.788Z,93.14
2022-12-26T02:42:17.809Z,93.55
2022-12-26T02:43:17.768Z,93.45
2022-12-26T02:44:17.761Z,93.55
2022-12-26T02:45:17.769Z,93.60
2022-12-26T02:46:17.819Z,94.22
2022-12-26T02:47:17.748Z,94.32
2022-12-26T02:48:17.731Z,94.12
2022-12-26T02:49:17.694Z,93.91
2022-12-26T02:50:17.682Z,93.80
2022-12-26T02:51:17.678Z,93.70
2022-12-26T02:52:17.670Z,93.70
2022-12-26T02:53:17.654Z,94.12
2022-12-26T02:54:17.653Z,94.32
2022-12-26T02:55:17.614Z,94.22
2022-12-26T02:56:17.612Z,94.74
2022-12-26T02:57:17.611Z,94.74
2022-12-26T02:58:17.590Z,94.74
2022-12-26T02:59:17.563Z,94.84
2022-12-26T03:00:17.552Z,94.74
2022-12-26T03:01:17.748Z,94.74
2022-12-26T03:02:17.753Z,94.64
2022-12-26T03:03:17.584Z,94.64
2022-12-26T03:04:17.530Z,94.84
2022-12-26T03:05:17.517Z,94.78
2022-12-26T03:06:17.491Z,94.53
2022-12-26T03:07:17.460Z,94.78
2022-12-26T03:08:17.447Z,95.30
2022-12-26T03:09:17.443Z,95.72
2022-12-26T03:10:17.410Z,96.34
2022-12-26T03:11:17.464Z,96.66
2022-12-26T03:12:17.391Z,96.66
2022-12-26T03:13:17.379Z,96.55
2022-12-26T03:14:17.384Z,96.14
2022-12-26T03:15:17.369Z,96.14
2022-12-26T03:16:17.429Z,96.14
2022-12-26T03:17:17.355Z,96.14
2022-12-26T03:18:17.322Z,96.45
2022-12-26T03:19:17.301Z,96.66
2022-12-26T03:20:17.315Z,96.45
2022-12-26T03:21:17.288Z,96.03
2022-12-26T03:22:17.265Z,96.14
2022-12-26T03:23:17.268Z,96.66
2022-12-26T03:24:17.251Z,96.45
2022-12-26T03:25:17.210Z,96.03
2022-12-26T03:26:17.210Z,95.72
2022-12-26T03:27:17.192Z,95.51
2022-12-26T03:28:17.210Z,95.62
2022-12-26T03:29:19.047Z,95.72
2022-12-26T03:30:17.167Z,95.93
2022-12-26T03:31:17.231Z,96.14
2022-12-26T03:32:17.158Z,96.66
2022-12-26T03:33:17.112Z,97.59
2022-12-26T03:34:17.149Z,97.70
2022-12-26T03:35:17.092Z,97.49
2022-12-26T03:36:17.091Z,97.28
2022-12-26T03:37:17.116Z,97.28
2022-12-26T03:38:17.056Z,97.70
2022-12-26T03:39:17.048Z,97.49
2022-12-26T03:40:17.038Z,97.07
2022-12-26T03:41:17.039Z,96.61
2022-12-26T03:42:17.006Z,96.20
2022-12-26T03:43:16.981Z,96.20
2022-12-26T03:44:17.009Z,96.45
2022-12-26T03:45:16.951Z,96.86
2022-12-26T03:46:17.095Z,96.61
2022-12-26T03:47:16.947Z,96.55
2022-12-26T03:48:16.921Z,96.41
2022-12-26T03:49:16.958Z,96.41
2022-12-26T03:50:16.905Z,97.13
2022-12-26T03:51:16.871Z,97.44
2022-12-26T03:52:16.878Z,97.55
2022-12-26T03:53:16.853Z,97.34
2022-12-26T03:54:16.873Z,97.24
2022-12-26T03:55:16.824Z,97.34
2022-12-26T03:56:16.820Z,97.44
2022-12-26T03:57:16.826Z,97.65
2022-12-26T03:58:16.833Z,97.30
2022-12-26T03:59:16.834Z,97.09
2022-12-26T04:00:16.777Z,96.78
2022-12-26T04:01:16.902Z,95.99
2022-12-26T04:02:16.870Z,95.67
2022-12-26T04:03:16.749Z,95.36
2022-12-26T04:04:16.756Z,95.05
2022-12-26T04:05:16.701Z,94.74
2022-12-26T04:06:16.698Z,94.74
2022-12-26T04:07:16.665Z,94.64
2022-12-26T04:08:19.146Z,95.26
2022-12-26T04:09:16.692Z,95.67
2022-12-26T04:10:16.648Z,95.99
2022-12-26T04:11:16.630Z,96.20
2022-12-26T04:12:16.637Z,95.99
2022-12-26T04:13:16.609Z,95.78
2022-12-26T04:14:16.600Z,95.57
2022-12-26T04:15:16.576Z,95.67
2022-12-26T04:16:16.665Z,95.99
2022-12-26T04:17:16.545Z,95.67
2022-12-26T04:18:16.541Z,95.62
2022-12-26T04:19:16.529Z,96.24
2022-12-26T04:20:16.574Z,96.66
2022-12-26T04:21:16.520Z,96.55
2022-12-26T04:22:16.501Z,96.34
2022-12-26T04:23:16.462Z,96.14
2022-12-26T04:24:16.478Z,96.03
2022-12-26T04:25:16.443Z,96.03
2022-12-26T04:26:16.443Z,96.76
2022-12-26T04:27:16.440Z,96.72
2022-12-26T04:28:16.431Z,96.20
2022-12-26T04:29:16.412Z,96.14
2022-12-26T04:30:16.375Z,96.03
2022-12-26T04:31:16.411Z,95.93
2022-12-26T04:32:16.383Z,96.45
2022-12-26T04:33:16.368Z,96.66
2022-12-26T04:34:16.337Z,96.55
2022-12-26T04:35:16.308Z,96.45
2022-12-26T04:36:16.298Z,96.55
2022-12-26T04:37:16.273Z,96.45
2022-12-26T04:38:16.296Z,96.24
2022-12-26T04:39:16.239Z,95.93
2022-12-26T04:40:16.286Z,95.72
2022-12-26T04:41:16.242Z,95.51
2022-12-26T04:42:16.236Z,95.30
2022-12-26T04:43:48.648Z,95.14
2022-12-26T04:44:16.198Z,95.35
2022-12-26T04:45:16.216Z,95.66
2022-12-26T04:46:16.253Z,95.76
2022-12-26T04:47:16.152Z,95.76
2022-12-26T04:48:16.135Z,95.56
2022-12-26T04:49:16.137Z,95.25
2022-12-26T04:50:16.107Z,95.35
2022-12-26T04:51:16.112Z,95.56
2022-12-26T04:52:16.087Z,95.97
2022-12-26T04:53:16.066Z,96.43
2022-12-26T04:54:16.097Z,96.85
2022-12-26T04:55:16.043Z,96.75
2022-12-26T04:56:16.033Z,96.53
2022-12-26T04:57:16.024Z,96.85
2022-12-26T04:58:16.012Z,97.47
2022-12-26T04:59:16.018Z,97.47
2022-12-26T05:00:15.977Z,97.37
2022-12-26T05:01:16.100Z,97.27
2022-12-26T05:02:16.156Z,97.01
2022-12-26T05:03:19.149Z,96.59
2022-12-26T05:04:15.935Z,96.39
2022-12-26T05:05:15.908Z,96.28
2022-12-26T05:06:15.918Z,96.08
2022-12-26T05:07:15.919Z,96.39
2022-12-26T05:08:15.878Z,96.39
2022-12-26T05:09:15.863Z,96.28
2022-12-26T05:10:15.868Z,96.08
2022-12-26T05:11:15.868Z,96.08
2022-12-26T05:12:15.826Z,96.08
2022-12-26T05:13:15.798Z,96.08
2022-12-26T05:14:15.790Z,96.18
2022-12-26T05:15:15.781Z,96.28
2022-12-26T05:16:15.884Z,96.18
2022-12-26T05:17:15.758Z,96.22
2022-12-26T05:18:15.752Z,96.18
2022-12-26T05:19:15.751Z,96.01
2022-12-26T05:20:15.746Z,96.01
2022-12-26T05:21:15.698Z,95.81
2022-12-26T05:22:15.701Z,95.60
2022-12-26T05:23:15.670Z,95.50
2022-12-26T05:24:15.671Z,95.91
2022-12-26T05:25:15.679Z,95.91
2022-12-26T05:26:15.669Z,95.91
2022-12-26T05:27:15.622Z,95.81
2022-12-26T05:28:15.625Z,95.81
2022-12-26T05:29:15.603Z,95.70
2022-12-26T05:30:15.616Z,95.60
2022-12-26T05:31:15.640Z,95.70
2022-12-26T05:32:15.558Z,95.91
2022-12-26T05:33:15.541Z,95.81
2022-12-26T05:34:15.536Z,95.70
2022-12-26T05:35:15.531Z,96.01
2022-12-26T05:36:15.542Z,96.12
2022-12-26T05:37:15.556Z,96.12
2022-12-26T05:38:15.495Z,95.91
2022-12-26T05:39:15.464Z,95.81
2022-12-26T05:40:15.460Z,96.43
2022-12-26T05:41:15.461Z,97.06
2022-12-26T05:42:15.441Z,96.75
2022-12-26T05:43:15.418Z,96.64
2022-12-26T05:44:15.431Z,96.33
2022-12-26T05:45:15.394Z,96.01
2022-12-26T05:46:15.424Z,95.91
2022-12-26T05:47:15.379Z,95.91
2022-12-26T05:48:15.361Z,96.37
2022-12-26T05:49:15.368Z,96.48
2022-12-26T05:50:15.327Z,96.48
2022-12-26T05:51:15.310Z,96.58
2022-12-26T05:52:15.343Z,96.79
2022-12-26T05:53:15.290Z,96.69
2022-12-26T05:54:15.281Z,96.58
2022-12-26T05:55:15.287Z,96.58
2022-12-26T05:56:15.605Z,96.58
2022-12-26T05:57:15.229Z,96.48
2022-12-26T05:58:15.235Z,96.26
2022-12-26T05:59:15.211Z,96.37
2022-12-26T06:00:15.219Z,96.79
2022-12-26T06:01:15.207Z,97.10
2022-12-26T06:02:15.374Z,97.20
2022-12-26T06:03:15.409Z,97.10
2022-12-26T06:04:15.157Z,97.10
2022-12-26T06:05:15.123Z,96.89
2022-12-26T06:06:15.138Z,96.69
2022-12-26T06:07:15.127Z,96.37
2022-12-26T06:08:15.128Z,96.16
2022-12-26T06:09:15.083Z,96.26
2022-12-26T06:10:15.088Z,96.16
2022-12-26T06:11:15.041Z,96.26
2022-12-26T06:12:15.037Z,96.26
2022-12-26T06:13:15.060Z,96.26
2022-12-26T06:14:15.030Z,96.26
2022-12-26T06:15:15.013Z,96.79
2022-12-26T06:16:15.059Z,97.20
2022-12-26T06:17:14.984Z,97.41
2022-12-26T06:18:14.964Z,97.31
2022-12-26T06:19:14.972Z,97.20
2022-12-26T06:20:14.960Z,97.41
2022-12-26T06:21:14.946Z,97.72
2022-12-26T06:22:14.922Z,98.35
2022-12-26T06:23:14.925Z,98.25
2022-12-26T06:24:14.921Z,97.89
2022-12-26T06:25:14.874Z,97.58
2022-12-26T06:26:14.875Z,97.20
2022-12-26T06:27:14.845Z,96.79
2022-12-26T06:28:14.821Z,96.26
2022-12-26T06:29:14.853Z,95.85
2022-12-26T06:30:14.801Z,95.64
2022-12-26T06:31:14.911Z,96.06
2022-12-26T06:32:14.810Z,95.95
2022-12-26T06:33:14.780Z,96.06
2022-12-26T06:34:14.754Z,95.75
2022-12-26T06:35:14.741Z,95.54
2022-12-26T06:36:14.752Z,95.43
2022-12-26T06:37:14.722Z,95.54
2022-12-26T06:38:14.706Z,95.64
2022-12-26T06:39:14.700Z,96.06
2022-12-26T06:40:14.707Z,96.26
2022-12-26T06:41:14.691Z,96.37
2022-12-26T06:42:14.778Z,96.52
2022-12-26T06:43:14.648Z,96.52
2022-12-26T06:44:18.469Z,96.58
2022-12-26T06:45:14.618Z,96.58
2022-12-26T06:46:14.659Z,96.62
2022-12-26T06:47:14.654Z,96.58
2022-12-26T06:48:14.636Z,96.37
2022-12-26T06:49:14.586Z,96.26
2022-12-26T06:50:14.552Z,96.06
2022-12-26T06:51:14.579Z,96.00
2022-12-26T06:52:14.556Z,95.85
2022-12-26T06:53:14.533Z,95.79
2022-12-26T06:54:14.494Z,95.79
2022-12-26T06:55:14.481Z,95.89
2022-12-26T06:56:14.477Z,95.79
2022-12-26T06:57:14.462Z,95.54
2022-12-26T06:58:14.454Z,95.37
2022-12-26T06:59:14.440Z,95.27
2022-12-26T07:00:14.407Z,95.27
2022-12-26T07:01:14.523Z,95.48
2022-12-26T07:02:14.487Z,96.31
2022-12-26T07:03:14.443Z,96.62
2022-12-26T07:04:14.393Z,96.52
2022-12-26T07:05:14.357Z,96.52
2022-12-26T07:06:14.325Z,96.42
2022-12-26T07:07:14.354Z,96.31
2022-12-26T07:08:14.304Z,96.31
2022-12-26T07:09:14.341Z,96.42
2022-12-26T07:10:14.291Z,96.21
2022-12-26T07:11:14.303Z,96.11
2022-12-26T07:12:14.271Z,96.00
2022-12-26T07:13:14.280Z,95.79
2022-12-26T07:14:14.227Z,95.68
2022-12-26T07:15:14.224Z,95.48
2022-12-26T07:16:14.339Z,95.27
2022-12-26T07:17:14.208Z,95.17
2022-12-26T07:18:14.232Z,95.17
2022-12-26T07:19:14.195Z,95.27
2022-12-26T07:20:14.153Z,95.48
2022-12-26T07:21:14.173Z,96.21
2022-12-26T07:22:14.132Z,96.83
2022-12-26T07:23:14.157Z,97.46
2022-12-26T07:24:14.131Z,98.29
2022-12-26T07:25:14.117Z,97.77
2022-12-26T07:26:14.057Z,97.46
2022-12-26T07:27:14.066Z,97.35
2022-12-26T07:28:14.039Z,97.46
2022-12-26T07:29:14.031Z,97.46
2022-12-26T07:30:14.063Z,97.25
2022-12-26T07:31:14.055Z,97.46
2022-12-26T07:32:14.201Z,97.67
2022-12-26T07:33:13.986Z,97.56
2022-12-26T07:34:13.983Z,97.77
2022-12-26T07:35:13.962Z,97.77
2022-12-26T07:36:13.965Z,97.77
2022-12-26T07:37:13.938Z,97.77
2022-12-26T07:38:13.906Z,97.67
2022-12-26T07:39:13.941Z,97.88
2022-12-26T07:40:13.911Z,98.08
2022-12-26T07:41:13.897Z,98.29
2022-12-26T07:42:13.915Z,98.39
2022-12-26T07:43:13.852Z,98.35
2022-12-26T07:44:13.837Z,98.25
2022-12-26T07:45:13.826Z,98.14
2022-12-26T07:46:13.856Z,98.04
2022-12-26T07:47:13.850Z,97.62
2022-12-26T07:48:13.779Z,97.62
2022-12-26T07:49:13.776Z,97.41
2022-12-26T07:50:13.763Z,97.41
2022-12-26T07:51:13.758Z,97.20
2022-12-26T07:52:13.764Z,97.20
2022-12-26T07:53:13.729Z,97.10
2022-12-26T07:54:13.708Z,97.00
2022-12-26T07:55:13.692Z,96.89
2022-12-26T07:56:13.693Z,96.79
2022-12-26T07:57:46.884Z,96.79
2022-12-26T07:58:13.654Z,96.69
2022-12-26T07:59:13.641Z,96.58
2022-12-26T08:00:13.647Z,96.69
2022-12-26T08:01:13.745Z,96.69
2022-12-26T08:02:13.868Z,96.64
2022-12-26T08:03:13.771Z,96.75
2022-12-26T08:04:13.570Z,96.95
2022-12-26T08:05:13.588Z,97.01
2022-12-26T08:06:13.553Z,97.33
2022-12-26T08:07:13.543Z,97.28
2022-12-26T08:08:13.544Z,97.49
2022-12-26T08:09:13.543Z,97.17
2022-12-26T08:10:13.500Z,96.55
2022-12-26T08:11:13.520Z,96.55
2022-12-26T08:12:13.472Z,96.41
2022-12-26T08:13:13.474Z,96.41
2022-12-26T08:14:13.479Z,96.20
2022-12-26T08:15:13.431Z,95.73
2022-12-26T08:16:13.500Z,95.63
2022-12-26T08:17:13.511Z,95.84
2022-12-26T08:18:13.426Z,95.69
2022-12-26T08:19:13.385Z,95.69
2022-12-26T08:20:13.372Z,95.48
2022-12-26T08:21:13.399Z,94.86
2022-12-26T08:22:13.342Z,94.71
2022-12-26T08:23:13.354Z,94.71
2022-12-26T08:24:13.310Z,94.26
2022-12-26T08:25:15.506Z,94.15
2022-12-26T08:26:13.318Z,94.05
2022-12-26T08:27:13.273Z,93.28
2022-12-26T08:28:13.299Z,92.49
2022-12-26T08:29:13.255Z,92.49
2022-12-26T08:30:13.230Z,92.69
2022-12-26T08:31:13.220Z,92.69
2022-12-26T08:32:13.233Z,92.86
2022-12-26T08:33:13.214Z,92.76
2022-12-26T08:34:13.177Z,92.45
2022-12-26T08:35:13.181Z,92.14
2022-12-26T08:36:13.155Z,91.83
2022-12-26T08:37:13.168Z,91.62
2022-12-26T08:38:13.136Z,91.27
2022-12-26T08:39:13.139Z,91.37
2022-12-26T08:40:15.534Z,91.37
2022-12-26T08:41:13.116Z,91.22
2022-12-26T08:42:13.102Z,91.22
2022-12-26T08:43:32.122Z,90.77
2022-12-26T08:44:29.218Z,90.35
2022-12-26T08:45:13.043Z,90.35
2022-12-26T08:46:13.101Z,89.42
2022-12-26T08:47:13.015Z,88.69
2022-12-26T08:48:13.033Z,88.90
2022-12-26T08:49:13.019Z,89.42
2022-12-26T08:50:13.068Z,89.62
2022-12-26T08:51:12.964Z,89.62
2022-12-26T08:52:12.953Z,89.94
2022-12-26T08:53:12.952Z,90.00
2022-12-26T08:54:12.941Z,90.00
2022-12-26T08:55:12.911Z,89.58
2022-12-26T08:56:12.889Z,90.00
2022-12-26T08:57:12.887Z,89.65
2022-12-26T08:58:12.916Z,89.75
2022-12-26T08:59:12.881Z,89.65
2022-12-26T09:00:12.847Z,89.19
2022-12-26T09:01:13.002Z,89.19
2022-12-26T09:02:13.013Z,89.29
2022-12-26T09:03:12.831Z,88.64
2022-12-26T09:04:12.820Z,88.22
2022-12-26T09:05:12.778Z,87.87
2022-12-26T09:06:12.760Z,86.94
2022-12-26T09:07:12.749Z,86.79
2022-12-26T09:08:12.726Z,86.59
2022-12-26T09:09:12.788Z,86.83
2022-12-26T09:10:12.705Z,86.11
2022-12-26T09:11:12.700Z,86.52
2022-12-26T09:12:12.674Z,86.73
2022-12-26T09:13:12.682Z,86.42
2022-12-26T09:14:12.676Z,86.42
2022-12-26T09:15:12.651Z,86.21
2022-12-26T09:16:12.640Z,85.97
2022-12-26T09:17:12.729Z,85.04
2022-12-26T09:18:12.596Z,83.97
2022-12-26T09:19:12.622Z,83.51
2022-12-26T09:20:12.567Z,83.48
2022-12-26T09:21:12.586Z,81.99
2022-12-26T09:22:12.548Z,81.23
2022-12-26T09:23:12.537Z,80.41
2022-12-26T09:24:12.537Z,79.58
2022-12-26T09:25:12.537Z,79.69
2022-12-26T09:26:12.495Z,80.04
2022-12-26T09:27:12.515Z,80.14
2022-12-26T09:28:12.459Z,80.65
2022-12-26T09:29:12.498Z,81.07
2022-12-26T09:30:12.496Z,80.86
2022-12-26T09:31:12.518Z,80.34
2022-12-26T09:32:12.438Z,80.69
2022-12-26T09:33:12.408Z,81.21
2022-12-26T09:34:12.390Z,81.72
2022-12-26T09:35:12.406Z,82.07
2022-12-26T09:36:14.871Z,82.38
2022-12-26T09:37:12.371Z,82.79
2022-12-26T09:38:12.333Z,82.89
2022-12-26T09:39:12.322Z,82.93
2022-12-26T09:40:12.328Z,83.04
2022-12-26T09:41:12.426Z,83.25
2022-12-26T09:42:12.290Z,83.25
2022-12-26T09:43:12.304Z,83.34
2022-12-26T09:44:12.300Z,83.65
2022-12-26T09:45:12.251Z,83.76
2022-12-26T09:46:12.291Z,83.86
2022-12-26T09:47:12.285Z,83.65
2022-12-26T09:48:12.204Z,83.55
2022-12-26T09:49:12.196Z,83.55
2022-12-26T09:50:12.175Z,83.55
2022-12-26T09:51:12.159Z,83.49
2022-12-26T09:52:12.174Z,83.49
2022-12-26T09:53:12.169Z,83.70
2022-12-26T09:54:12.135Z,84.00
2022-12-26T09:55:12.120Z,84.31
2022-12-26T09:56:23.647Z,84.48
2022-12-26T09:57:15.025Z,84.59
2022-12-26T09:58:12.100Z,84.69
2022-12-26T09:59:12.063Z,84.65
2022-12-26T10:00:12.070Z,84.44
2022-12-26T10:01:12.253Z,84.34
2022-12-26T10:02:12.119Z,84.61
2022-12-26T10:03:12.028Z,84.61
2022-12-26T10:04:12.033Z,83.75
2022-12-26T10:05:11.971Z,83.23
2022-12-26T10:06:11.970Z,82.78
2022-12-26T10:07:11.961Z,82.78
2022-12-26T10:08:11.932Z,83.09
2022-12-26T10:09:11.985Z,83.15
2022-12-26T10:10:11.928Z,82.19
2022-12-26T10:11:11.907Z,81.33
2022-12-26T10:12:11.914Z,81.12
2022-12-26T10:13:11.868Z,81.19
2022-12-26T10:14:16.452Z,81.56
2022-12-26T10:15:11.857Z,79.98
2022-12-26T10:16:11.884Z,79.74
2022-12-26T10:17:11.854Z,78.57
2022-12-26T10:18:11.799Z,77.34
2022-12-26T10:19:11.799Z,77.92
2022-12-26T10:20:11.808Z,78.12
2022-12-26T10:21:11.764Z,76.68
2022-12-26T10:22:11.786Z,75.62
2022-12-26T10:23:11.731Z,75.73
2022-12-26T10:24:11.762Z,75.93
2022-12-26T10:25:11.696Z,76.75
2022-12-26T10:26:11.727Z,75.69
2022-12-26T10:27:11.682Z,74.40
2022-12-26T10:28:11.726Z,75.11
2022-12-26T10:29:11.674Z,75.42
2022-12-26T10:30:11.640Z,75.62
2022-12-26T10:31:11.712Z,75.11
2022-12-26T10:32:11.611Z,76.04
2022-12-26T10:33:11.598Z,75.01
2022-12-26T10:34:11.591Z,75.18
2022-12-26T10:35:11.596Z,75.08
2022-12-26T10:36:11.615Z,74.73
2022-12-26T10:37:11.544Z,73.57
2022-12-26T10:38:11.574Z,73.54
2022-12-26T10:39:11.538Z,73.13
2022-12-26T10:40:11.554Z,74.22
2022-12-26T10:41:11.517Z,73.30
2022-12-26T10:42:11.545Z,72.04
2022-12-26T10:43:11.474Z,69.96
2022-12-26T10:44:11.539Z,69.45
2022-12-26T10:45:11.497Z,70.16
2022-12-26T10:46:11.472Z,68.60
2022-12-26T10:47:11.443Z,69.11
2022-12-26T10:48:11.433Z,68.19
2022-12-26T10:49:11.377Z,67.13
2022-12-26T10:50:11.414Z,67.85
2022-12-26T10:51:11.361Z,67.71
2022-12-26T10:52:11.355Z,66.46
2022-12-26T10:53:11.342Z,64.39
2022-12-26T10:54:11.352Z,64.87
2022-12-26T10:55:29.542Z,65.45
2022-12-26T10:56:16.345Z,64.63
2022-12-26T10:57:11.301Z,63.99
2022-12-26T10:58:11.271Z,62.97
2022-12-26T10:59:11.282Z,62.36
2022-12-26T11:00:11.259Z,62.97
2022-12-26T11:01:11.280Z,61.14
2022-12-26T11:02:11.367Z,62.66
2022-12-26T11:03:11.443Z,62.05
2022-12-26T11:04:11.197Z,62.05
2022-12-26T11:05:21.949Z,61.85
2022-12-26T11:06:11.192Z,61.82
2022-12-26T11:07:11.151Z,60.39
2022-12-26T11:08:11.162Z,59.38
2022-12-26T11:09:11.121Z,59.68
2022-12-26T11:10:11.140Z,61.38
2022-12-26T11:11:11.124Z,61.36
2022-12-26T11:12:11.089Z,60.85
2022-12-26T11:13:11.102Z,57.59
2022-12-26T11:14:11.080Z,57.29
2022-12-26T11:15:11.039Z,57.59
2022-12-26T11:16:11.170Z,57.18
2022-12-26T11:17:11.006Z,58.30
2022-12-26T11:18:11.006Z,58.92
2022-12-26T11:19:11.002Z,56.70
2022-12-26T11:20:11.011Z,56.68
2022-12-26T11:21:12.744Z,57.29
2022-12-26T11:22:10.994Z,57.56
2022-12-26T11:23:10.925Z,57.67
2022-12-26T11:24:10.963Z,56.88
2022-12-26T11:25:10.911Z,57.52
2022-12-26T11:26:10.899Z,57.79
2022-12-26T11:27:12.835Z,58.99
2022-12-26T11:28:10.930Z,58.45
2022-12-26T11:29:10.854Z,57.81
2022-12-26T11:30:10.873Z,58.50
2022-12-26T11:31:10.905Z,56.24
2022-12-26T11:32:10.826Z,56.74
2022-12-26T11:33:14.648Z,54.59
2022-12-26T11:34:10.863Z,55.78
2022-12-26T11:35:10.776Z,55.12
2022-12-26T11:36:10.761Z,55.40
2022-12-26T11:37:10.762Z,55.50
2022-12-26T11:38:10.784Z,55.19
2022-12-26T11:39:10.723Z,55.30
2022-12-26T11:40:10.719Z,55.43
2022-12-26T11:41:10.736Z,55.63
2022-12-26T11:42:10.684Z,54.36
2022-12-26T11:43:10.738Z,56.09
2022-12-26T11:44:10.657Z,56.34
2022-12-26T11:45:10.632Z,56.98
2022-12-26T11:46:10.678Z,56.90
2022-12-26T11:47:10.609Z,58.40
2022-12-26T11:48:10.607Z,58.02
2022-12-26T11:49:10.590Z,58.56
2022-12-26T11:50:10.607Z,59.19
2022-12-26T11:51:10.556Z,60.72
2022-12-26T11:52:10.549Z,60.85
2022-12-26T11:53:10.527Z,59.96
2022-12-26T11:54:10.537Z,60.68
2022-12-26T11:55:10.532Z,61.00
2022-12-26T11:56:10.489Z,62.10
2022-12-26T11:57:10.470Z,61.08
2022-12-26T11:58:10.499Z,61.79
2022-12-26T11:59:10.454Z,62.30
2022-12-26T12:00:10.465Z,62.07
2022-12-26T12:01:10.454Z,61.74
2022-12-26T12:02:10.443Z,60.03
2022-12-26T12:03:10.406Z,60.95
2022-12-26T12:04:10.392Z,61.56
2022-12-26T12:05:10.371Z,62.04
2022-12-26T12:06:10.393Z,60.82
2022-12-26T12:07:10.340Z,61.13
2022-12-26T12:08:10.333Z,61.02
2022-12-26T12:09:10.317Z,61.43
2022-12-26T12:10:10.330Z,62.35
2022-12-26T12:11:10.304Z,62.04
2022-12-26T12:12:10.294Z,61.46
2022-12-26T12:13:10.302Z,62.17
2022-12-26T12:14:10.253Z,62.45
2022-12-26T12:15:10.238Z,61.83
2022-12-26T12:16:10.253Z,60.61
2022-12-26T12:17:10.234Z,59.42
2022-12-26T12:18:10.221Z,59.42
2022-12-26T12:19:10.199Z,60.14
2022-12-26T12:20:10.203Z,59.83
2022-12-26T12:21:10.148Z,60.24
2022-12-26T12:22:10.187Z,60.14
2022-12-26T12:23:10.121Z,60.24
2022-12-26T12:24:10.121Z,58.71
2022-12-26T12:25:10.090Z,58.10
2022-12-26T12:26:10.090Z,58.71
2022-12-26T12:27:10.092Z,58.51
2022-12-26T12:28:10.054Z,60.44
2022-12-26T12:29:10.042Z,60.16
2022-12-26T12:30:10.042Z,60.57
2022-12-26T12:31:10.056Z,60.39
2022-12-26T12:32:10.400Z,61.54
2022-12-26T12:33:09.994Z,62.08
2022-12-26T12:34:09.987Z,62.32
2022-12-26T12:35:09.975Z,62.55
2022-12-26T12:36:09.969Z,61.32
2022-12-26T12:37:09.933Z,62.68
2022-12-26T12:38:09.931Z,62.88
2022-12-26T12:39:09.897Z,62.99
2022-12-26T12:40:09.941Z,63.70
2022-12-26T12:41:09.885Z,64.55
2022-12-26T12:42:09.884Z,64.45
2022-12-26T12:43:09.845Z,64.78
2022-12-26T12:44:09.873Z,65.50
2022-12-26T12:45:09.836Z,66.21
2022-12-26T12:46:09.884Z,66.42
2022-12-26T12:47:09.818Z,66.83
2022-12-26T12:48:09.819Z,67.37
2022-12-26T12:49:09.769Z,67.27
2022-12-26T12:50:09.796Z,67.37
2022-12-26T12:51:09.741Z,67.78
2022-12-26T12:52:09.784Z,67.27
2022-12-26T12:53:09.727Z,67.37
2022-12-26T12:54:09.726Z,66.75
2022-12-26T12:55:09.702Z,67.07
2022-12-26T12:56:09.686Z,66.96